PWSweather.com
Personal Weather Stations
Station Observations
KCAIRVIN1
Rancho San JoaquinUniversity Park, Irvine, CA 92612

Rancho San JoaquinUniversity ParkIrvine, CA 92612

Lat: 33.66, Lon: -117.83

Elevation: 72

Station Type:

http://www.irvineweather.net

High Low Average
Temperature 65.4°F18.6°F 47.1°F8.4°F 58.7°F14.8°F
Dew Point 48.9°F9.4°F 11.9°F-11.2°F 23.0°F-5.0°F
Winds 18.0 mph NNE29.0 mph NNE Calm Calm 5.3 mph 8.5 mph
Wind Gusts 27.0 mph43.5 mph -- 12.3 mph19.8 mph
Humidity 95% 14% 32%
Pressure 30.08 in1018.60 in 29.94 in1013.90 in -
Precipitation 0.00 in0.00 in - -
Hour Temp Dew Point Humidity Winds Wind Gusts Pressure Precip Precip Rate Daily Precip Total
12:00 AM 51.6°F10.9°C 48.9°F9.4°C 90% Calm Calm -- 29.95 in1014.2 mb 0.00 in0.0 mm 0.00 in0.0 mm 0.00 in0.0 mm
12:05 AM 51.2°F10.7°C 48.5°F9.2°C 90% Calm Calm -- 29.95 in1014.2 mb 0.00 in0.0 mm 0.00 in0.0 mm 0.00 in0.0 mm
12:10 AM 51.1°F10.6°C 48.7°F9.3°C 91% Calm Calm -- 29.95 in1014.2 mb 0.00 in0.0 mm 0.00 in0.0 mm 0.00 in0.0 mm
12:15 AM 51.0°F10.6°C 48.6°F9.2°C 91% Calm Calm -- 29.95 in1014.2 mb 0.00 in0.0 mm 0.00 in0.0 mm 0.00 in0.0 mm
12:20 AM 50.8°F10.4°C 48.4°F9.1°C 91% Calm Calm -- 29.95 in1014.2 mb 0.00 in0.0 mm 0.00 in0.0 mm 0.00 in0.0 mm
12:25 AM 50.7°F10.4°C 48.3°F9.1°C 91% Calm Calm -- 29.94 in1013.9 mb 0.00 in0.0 mm 0.00 in0.0 mm 0.00 in0.0 mm
12:30 AM 50.5°F10.3°C 48.1°F8.9°C 91% Calm Calm -- 29.94 in1013.9 mb 0.00 in0.0 mm 0.00 in0.0 mm 0.00 in0.0 mm
12:35 AM 50.4°F10.2°C 48.0°F8.9°C 91% Calm Calm -- 29.94 in1013.9 mb 0.00 in0.0 mm 0.00 in0.0 mm 0.00 in0.0 mm
12:40 AM 50.4°F10.2°C 48.3°F9.1°C 92% Calm Calm -- 29.95 in1014.2 mb 0.00 in0.0 mm 0.00 in0.0 mm 0.00 in0.0 mm
12:45 AM 50.3°F10.2°C 48.2°F9.0°C 92% Calm Calm -- 29.95 in1014.2 mb 0.00 in0.0 mm 0.00 in0.0 mm 0.00 in0.0 mm
12:50 AM 50.3°F10.2°C 48.2°F9.0°C 92% Calm Calm -- 29.95 in1014.2 mb 0.00 in0.0 mm 0.00 in0.0 mm 0.00 in0.0 mm
12:55 AM 50.2°F10.1°C 47.8°F8.8°C 91% Calm Calm -- 29.95 in1014.2 mb 0.00 in0.0 mm 0.00 in0.0 mm 0.00 in0.0 mm
01:00 AM 50.1°F10.1°C 48.0°F8.9°C 92% Calm Calm -- 29.95 in1014.2 mb 0.00 in0.0 mm 0.00 in0.0 mm 0.00 in0.0 mm
01:05 AM 50.1°F10.1°C 48.0°F8.9°C 92% Calm Calm -- 29.95 in1014.2 mb 0.00 in0.0 mm 0.00 in0.0 mm 0.00 in0.0 mm
01:10 AM 50.0°F10.0°C 47.9°F8.8°C 92% Calm Calm -- 29.95 in1014.2 mb 0.00 in0.0 mm 0.00 in0.0 mm 0.00 in0.0 mm
01:15 AM 49.9°F9.9°C 47.8°F8.8°C 92% Calm Calm -- 29.95 in1014.2 mb 0.00 in0.0 mm 0.00 in0.0 mm 0.00 in0.0 mm
01:20 AM 49.7°F9.8°C 47.6°F8.7°C 92% Calm Calm -- 29.95 in1014.2 mb 0.00 in0.0 mm 0.00 in0.0 mm 0.00 in0.0 mm
01:25 AM 49.7°F9.8°C 47.6°F8.7°C 92% Calm Calm -- 29.95 in1014.2 mb 0.00 in0.0 mm 0.00 in0.0 mm 0.00 in0.0 mm
01:30 AM 49.6°F9.8°C 47.5°F8.6°C 92% Calm Calm -- 29.95 in1014.2 mb 0.00 in0.0 mm 0.00 in0.0 mm 0.00 in0.0 mm
01:35 AM 49.5°F9.7°C 47.4°F8.6°C 92% Calm Calm -- 29.95 in1014.2 mb 0.00 in0.0 mm 0.00 in0.0 mm 0.00 in0.0 mm
01:40 AM 49.3°F9.6°C 47.2°F8.4°C 92% Calm Calm -- 29.95 in1014.2 mb 0.00 in0.0 mm 0.00 in0.0 mm 0.00 in0.0 mm
01:45 AM 49.1°F9.5°C 47.0°F8.3°C 92% Calm Calm -- 29.95 in1014.2 mb 0.00 in0.0 mm 0.00 in0.0 mm 0.00 in0.0 mm
01:50 AM 49.0°F9.4°C 47.2°F8.4°C 94% Calm Calm -- 29.95 in1014.2 mb 0.00 in0.0 mm 0.00 in0.0 mm 0.00 in0.0 mm
01:55 AM 48.9°F9.4°C 47.1°F8.4°C 94% Calm Calm -- 29.95 in1014.2 mb 0.00 in0.0 mm 0.00 in0.0 mm 0.00 in0.0 mm
02:00 AM 48.8°F9.3°C 47.0°F8.3°C 94% Calm Calm -- 29.95 in1014.2 mb 0.00 in0.0 mm 0.00 in0.0 mm 0.00 in0.0 mm
02:05 AM 48.6°F9.2°C 46.8°F8.2°C 94% Calm Calm -- 29.95 in1014.2 mb 0.00 in0.0 mm 0.00 in0.0 mm 0.00 in0.0 mm
02:10 AM 48.4°F9.1°C 46.6°F8.1°C 94% Calm Calm -- 29.95 in1014.2 mb 0.00 in0.0 mm 0.00 in0.0 mm 0.00 in0.0 mm
02:15 AM 48.2°F9.0°C 46.4°F8.0°C 94% Calm Calm -- 29.95 in1014.2 mb 0.00 in0.0 mm 0.00 in0.0 mm 0.00 in0.0 mm
02:20 AM 48.1°F8.9°C 46.3°F7.9°C 94% Calm Calm -- 29.94 in1013.9 mb 0.00 in0.0 mm 0.00 in0.0 mm 0.00 in0.0 mm
02:25 AM 48.0°F8.9°C 46.2°F7.9°C 94% Calm Calm -- 29.94 in1013.9 mb 0.00 in0.0 mm 0.00 in0.0 mm 0.00 in0.0 mm
02:30 AM 48.0°F8.9°C 46.2°F7.9°C 94% Calm Calm -- 29.94 in1013.9 mb 0.00 in0.0 mm 0.00 in0.0 mm 0.00 in0.0 mm
02:35 AM 47.9°F8.8°C 46.4°F8.0°C 95% Calm Calm 1.0 mph1.6 kmh 29.94 in1013.9 mb 0.00 in0.0 mm 0.00 in0.0 mm 0.00 in0.0 mm
02:40 AM 47.8°F8.8°C 46.3°F7.9°C 95% Calm Calm 2.0 mph3.2 kmh 29.94 in1013.9 mb 0.00 in0.0 mm 0.00 in0.0 mm 0.00 in0.0 mm
02:45 AM 47.9°F8.8°C 46.4°F8.0°C 95% Calm Calm -- 29.94 in1013.9 mb 0.00 in0.0 mm 0.00 in0.0 mm 0.00 in0.0 mm
02:50 AM 47.7°F8.7°C 46.2°F7.9°C 95% Calm Calm -- 29.95 in1014.2 mb 0.00 in0.0 mm 0.00 in0.0 mm 0.00 in0.0 mm
02:55 AM 47.7°F8.7°C 46.2°F7.9°C 95% Calm Calm -- 29.95 in1014.2 mb 0.00 in0.0 mm 0.00 in0.0 mm 0.00 in0.0 mm
03:00 AM 47.8°F8.8°C 46.3°F7.9°C 95% Calm Calm -- 29.94 in1013.9 mb 0.00 in0.0 mm 0.00 in0.0 mm 0.00 in0.0 mm
03:05 AM 47.8°F8.8°C 46.3°F7.9°C 95% Calm Calm -- 29.94 in1013.9 mb 0.00 in0.0 mm 0.00 in0.0 mm 0.00 in0.0 mm
03:10 AM 47.6°F8.7°C 46.1°F7.8°C 95% Calm Calm -- 29.95 in1014.2 mb 0.00 in0.0 mm 0.00 in0.0 mm 0.00 in0.0 mm
03:15 AM 47.5°F8.6°C 46.0°F7.8°C 95% Calm Calm -- 29.95 in1014.2 mb 0.00 in0.0 mm 0.00 in0.0 mm 0.00 in0.0 mm
03:20 AM 47.4°F8.6°C 45.9°F7.7°C 95% Calm Calm -- 29.94 in1013.9 mb 0.00 in0.0 mm 0.00 in0.0 mm 0.00 in0.0 mm
03:25 AM 47.3°F8.5°C 45.8°F7.7°C 95% Calm Calm -- 29.94 in1013.9 mb 0.00 in0.0 mm 0.00 in0.0 mm 0.00 in0.0 mm
03:30 AM 47.3°F8.5°C 45.8°F7.7°C 95% Calm Calm -- 29.95 in1014.2 mb 0.00 in0.0 mm 0.00 in0.0 mm 0.00 in0.0 mm
03:35 AM 47.2°F8.4°C 45.7°F7.6°C 95% Calm Calm -- 29.95 in1014.2 mb 0.00 in0.0 mm 0.00 in0.0 mm 0.00 in0.0 mm
03:40 AM 47.1°F8.4°C 45.6°F7.6°C 95% Calm Calm -- 29.95 in1014.2 mb 0.00 in0.0 mm 0.00 in0.0 mm 0.00 in0.0 mm
03:45 AM 47.1°F8.4°C 45.6°F7.6°C 95% Calm Calm -- 29.95 in1014.2 mb 0.00 in0.0 mm 0.00 in0.0 mm 0.00 in0.0 mm
03:50 AM 47.1°F8.4°C 45.6°F7.6°C 95% Calm Calm -- 29.94 in1013.9 mb 0.00 in0.0 mm 0.00 in0.0 mm 0.00 in0.0 mm
03:55 AM 47.1°F8.4°C 45.6°F7.6°C 95% Calm Calm 3.0 mph4.8 kmh 29.95 in1014.2 mb 0.00 in0.0 mm 0.00 in0.0 mm 0.00 in0.0 mm
04:00 AM 47.3°F8.5°C 45.5°F7.5°C 94% Calm Calm 3.0 mph4.8 kmh 29.95 in1014.2 mb 0.00 in0.0 mm 0.00 in0.0 mm 0.00 in0.0 mm
04:05 AM 47.5°F8.6°C 45.4°F7.4°C 92% 1.0 mph WSW1.6 kmh WSW 3.0 mph4.8 kmh 29.95 in1014.2 mb 0.00 in0.0 mm 0.00 in0.0 mm 0.00 in0.0 mm
04:10 AM 48.6°F9.2°C 41.6°F5.3°C 77% Calm Calm 4.0 mph6.4 kmh 29.95 in1014.2 mb 0.00 in0.0 mm 0.00 in0.0 mm 0.00 in0.0 mm
04:15 AM 52.0°F11.1°C 37.2°F2.9°C 57% 1.0 mph SE1.6 kmh SE 5.0 mph8.0 kmh 29.95 in1014.2 mb 0.00 in0.0 mm 0.00 in0.0 mm 0.00 in0.0 mm
04:20 AM 53.2°F11.8°C 37.3°F2.9°C 55% Calm Calm 5.0 mph8.0 kmh 29.95 in1014.2 mb 0.00 in0.0 mm 0.00 in0.0 mm 0.00 in0.0 mm
04:25 AM 54.3°F12.4°C 34.1°F1.2°C 46% 8.0 mph ENE12.9 kmh ENE 19.0 mph30.6 kmh 29.95 in1014.2 mb 0.00 in0.0 mm 0.00 in0.0 mm 0.00 in0.0 mm
04:30 AM 55.9°F13.3°C 31.3°F-0.4°C 39% 8.0 mph ESE12.9 kmh ESE 19.0 mph30.6 kmh 29.94 in1013.9 mb 0.00 in0.0 mm 0.00 in0.0 mm 0.00 in0.0 mm
04:35 AM 57.2°F14.0°C 29.6°F-1.3°C 35% 5.0 mph SE8.0 kmh SE 11.0 mph17.7 kmh 29.94 in1013.9 mb 0.00 in0.0 mm 0.00 in0.0 mm 0.00 in0.0 mm
04:40 AM 58.0°F14.4°C 28.8°F-1.8°C 33% 6.0 mph ESE9.7 kmh ESE 20.0 mph32.2 kmh 29.95 in1014.2 mb 0.00 in0.0 mm 0.00 in0.0 mm 0.00 in0.0 mm
04:45 AM 58.6°F14.8°C 27.7°F-2.4°C 31% 4.0 mph N6.4 kmh N 14.0 mph22.5 kmh 29.95 in1014.2 mb 0.00 in0.0 mm 0.00 in0.0 mm 0.00 in0.0 mm
04:50 AM 58.7°F14.8°C 27.8°F-2.3°C 31% 1.0 mph NW1.6 kmh NW 14.0 mph22.5 kmh 29.95 in1014.2 mb 0.00 in0.0 mm 0.00 in0.0 mm 0.00 in0.0 mm
04:55 AM 58.8°F14.9°C 27.1°F-2.7°C 29% 6.0 mph ENE9.7 kmh ENE 15.0 mph24.1 kmh 29.95 in1014.2 mb 0.00 in0.0 mm 0.00 in0.0 mm 0.00 in0.0 mm
05:00 AM 58.8°F14.9°C 27.1°F-2.7°C 29% 4.0 mph ESE6.4 kmh ESE 15.0 mph24.1 kmh 29.95 in1014.2 mb 0.00 in0.0 mm 0.00 in0.0 mm 0.00 in0.0 mm
05:05 AM 58.8°F14.9°C 27.1°F-2.7°C 29% 4.0 mph ESE6.4 kmh ESE 8.0 mph12.9 kmh 29.95 in1014.2 mb 0.00 in0.0 mm 0.00 in0.0 mm 0.00 in0.0 mm
05:10 AM 58.7°F14.8°C 26.1°F-3.3°C 28% 5.0 mph NW8.0 kmh NW 12.0 mph19.3 kmh 29.95 in1014.2 mb 0.00 in0.0 mm 0.00 in0.0 mm 0.00 in0.0 mm
05:15 AM 58.9°F14.9°C 26.3°F-3.2°C 28% 3.0 mph N4.8 kmh N 15.0 mph24.1 kmh 29.95 in1014.2 mb 0.00 in0.0 mm 0.00 in0.0 mm 0.00 in0.0 mm
05:20 AM 58.7°F14.8°C 26.1°F-3.3°C 28% 2.0 mph E3.2 kmh E 15.0 mph24.1 kmh 29.95 in1014.2 mb 0.00 in0.0 mm 0.00 in0.0 mm 0.00 in0.0 mm
05:25 AM 58.6°F14.8°C 26.0°F-3.3°C 28% 7.0 mph ESE11.3 kmh ESE 11.0 mph17.7 kmh 29.96 in1014.6 mb 0.00 in0.0 mm 0.00 in0.0 mm 0.00 in0.0 mm
05:30 AM 58.6°F14.8°C 26.0°F-3.3°C 28% 5.0 mph NNE8.0 kmh NNE 19.0 mph30.6 kmh 29.96 in1014.6 mb 0.00 in0.0 mm 0.00 in0.0 mm 0.00 in0.0 mm
05:35 AM 58.4°F14.7°C 25.8°F-3.4°C 28% 6.0 mph SSE9.7 kmh SSE 15.0 mph24.1 kmh 29.96 in1014.6 mb 0.00 in0.0 mm 0.00 in0.0 mm 0.00 in0.0 mm
05:40 AM 58.4°F14.7°C 25.8°F-3.4°C 28% 4.0 mph NE6.4 kmh NE 15.0 mph24.1 kmh 29.96 in1014.6 mb 0.00 in0.0 mm 0.00 in0.0 mm 0.00 in0.0 mm
05:45 AM 58.3°F14.6°C 25.7°F-3.5°C 28% 8.0 mph NE12.9 kmh NE 15.0 mph24.1 kmh 29.96 in1014.6 mb 0.00 in0.0 mm 0.00 in0.0 mm 0.00 in0.0 mm
05:50 AM 58.3°F14.6°C 25.7°F-3.5°C 28% 4.0 mph E6.4 kmh E 15.0 mph24.1 kmh 29.97 in1014.9 mb 0.00 in0.0 mm 0.00 in0.0 mm 0.00 in0.0 mm
05:55 AM 58.2°F14.6°C 25.7°F-3.5°C 28% 3.0 mph SE4.8 kmh SE 17.0 mph27.4 kmh 29.97 in1014.9 mb 0.00 in0.0 mm 0.00 in0.0 mm 0.00 in0.0 mm
06:00 AM 58.1°F14.5°C 25.6°F-3.6°C 28% 7.0 mph SE11.3 kmh SE 17.0 mph27.4 kmh 29.97 in1014.9 mb 0.00 in0.0 mm 0.00 in0.0 mm 0.00 in0.0 mm
06:05 AM 58.0°F14.4°C 25.5°F-3.6°C 28% 11.0 mph E17.7 kmh E 15.0 mph24.1 kmh 29.97 in1014.9 mb 0.00 in0.0 mm 0.00 in0.0 mm 0.00 in0.0 mm
06:10 AM 58.0°F14.4°C 24.6°F-4.1°C 27% 4.0 mph E6.4 kmh E 15.0 mph24.1 kmh 29.97 in1014.9 mb 0.00 in0.0 mm 0.00 in0.0 mm 0.00 in0.0 mm
06:15 AM 57.7°F14.3°C 25.2°F-3.8°C 28% 4.0 mph E6.4 kmh E 9.0 mph14.5 kmh 29.98 in1015.2 mb 0.00 in0.0 mm 0.00 in0.0 mm 0.00 in0.0 mm
06:20 AM 57.7°F14.3°C 24.3°F-4.3°C 27% 9.0 mph ENE14.5 kmh ENE 15.0 mph24.1 kmh 29.98 in1015.2 mb 0.00 in0.0 mm 0.00 in0.0 mm 0.00 in0.0 mm
06:25 AM 57.7°F14.3°C 24.3°F-4.3°C 27% 5.0 mph SE8.0 kmh SE 14.0 mph22.5 kmh 29.99 in1015.6 mb 0.00 in0.0 mm 0.00 in0.0 mm 0.00 in0.0 mm
06:30 AM 57.7°F14.3°C 24.3°F-4.3°C 27% 8.0 mph ENE12.9 kmh ENE 14.0 mph22.5 kmh 29.99 in1015.6 mb 0.00 in0.0 mm 0.00 in0.0 mm 0.00 in0.0 mm
06:35 AM 57.6°F14.2°C 24.2°F-4.3°C 27% 3.0 mph SSE4.8 kmh SSE 11.0 mph17.7 kmh 29.99 in1015.6 mb 0.00 in0.0 mm 0.00 in0.0 mm 0.00 in0.0 mm
06:40 AM 57.4°F14.1°C 24.1°F-4.4°C 27% 6.0 mph NE9.7 kmh NE 11.0 mph17.7 kmh 29.99 in1015.6 mb 0.00 in0.0 mm 0.00 in0.0 mm 0.00 in0.0 mm
06:45 AM 57.4°F14.1°C 24.1°F-4.4°C 27% 10.0 mph S16.1 kmh S 12.0 mph19.3 kmh 29.99 in1015.6 mb 0.00 in0.0 mm 0.00 in0.0 mm 0.00 in0.0 mm
06:50 AM 57.4°F14.1°C 23.1°F-4.9°C 26% 6.0 mph WNW9.7 kmh WNW 12.0 mph19.3 kmh 29.99 in1015.6 mb 0.00 in0.0 mm 0.00 in0.0 mm 0.00 in0.0 mm
06:55 AM 57.4°F14.1°C 23.1°F-4.9°C 26% 9.0 mph ENE14.5 kmh ENE 9.0 mph14.5 kmh 29.99 in1015.6 mb 0.00 in0.0 mm 0.00 in0.0 mm 0.00 in0.0 mm
07:00 AM 57.4°F14.1°C 23.1°F-4.9°C 26% 4.0 mph S6.4 kmh S 9.0 mph14.5 kmh 29.99 in1015.6 mb 0.00 in0.0 mm 0.00 in0.0 mm 0.00 in0.0 mm
07:05 AM 57.5°F14.2°C 23.2°F-4.9°C 26% 4.0 mph ESE6.4 kmh ESE 9.0 mph14.5 kmh 29.99 in1015.6 mb 0.00 in0.0 mm 0.00 in0.0 mm 0.00 in0.0 mm
07:10 AM 57.5°F14.2°C 23.2°F-4.9°C 26% 4.0 mph SE6.4 kmh SE 9.0 mph14.5 kmh 29.99 in1015.6 mb 0.00 in0.0 mm 0.00 in0.0 mm 0.00 in0.0 mm
07:15 AM 57.6°F14.2°C 23.3°F-4.8°C 26% 9.0 mph ENE14.5 kmh ENE 10.0 mph16.1 kmh 30.00 in1015.9 mb 0.00 in0.0 mm 0.00 in0.0 mm 0.00 in0.0 mm
07:20 AM 57.7°F14.3°C 23.4°F-4.8°C 26% 7.0 mph E11.3 kmh E 11.0 mph17.7 kmh 30.00 in1015.9 mb 0.00 in0.0 mm 0.00 in0.0 mm 0.00 in0.0 mm
07:25 AM 57.7°F14.3°C 22.4°F-5.3°C 25% 2.0 mph ESE3.2 kmh ESE 9.0 mph14.5 kmh 30.00 in1015.9 mb 0.00 in0.0 mm 0.00 in0.0 mm 0.00 in0.0 mm
07:30 AM 57.7°F14.3°C 22.4°F-5.3°C 25% 9.0 mph ENE14.5 kmh ENE 12.0 mph19.3 kmh 30.00 in1015.9 mb 0.00 in0.0 mm 0.00 in0.0 mm 0.00 in0.0 mm
07:35 AM 57.8°F14.3°C 23.5°F-4.7°C 26% 1.0 mph NE1.6 kmh NE 9.0 mph14.5 kmh 30.00 in1015.9 mb 0.00 in0.0 mm 0.00 in0.0 mm 0.00 in0.0 mm
07:40 AM 57.9°F14.4°C 22.6°F-5.2°C 25% 5.0 mph S8.0 kmh S 14.0 mph22.5 kmh 30.00 in1015.9 mb 0.00 in0.0 mm 0.00 in0.0 mm 0.00 in0.0 mm
07:45 AM 58.0°F14.4°C 22.7°F-5.2°C 25% 4.0 mph SE6.4 kmh SE 15.0 mph24.1 kmh 30.00 in1015.9 mb 0.00 in0.0 mm 0.00 in0.0 mm 0.00 in0.0 mm
07:50 AM 58.1°F14.5°C 21.8°F-5.7°C 24% 13.0 mph E20.9 kmh E 15.0 mph24.1 kmh 30.00 in1015.9 mb 0.00 in0.0 mm 0.00 in0.0 mm 0.00 in0.0 mm
07:55 AM 58.1°F14.5°C 22.8°F-5.1°C 25% 3.0 mph NE4.8 kmh NE 12.0 mph19.3 kmh 30.00 in1015.9 mb 0.00 in0.0 mm 0.00 in0.0 mm 0.00 in0.0 mm
08:00 AM 58.2°F14.6°C 21.9°F-5.6°C 24% 4.0 mph NNW6.4 kmh NNW 16.0 mph25.7 kmh 30.00 in1015.9 mb 0.00 in0.0 mm 0.00 in0.0 mm 0.00 in0.0 mm
08:05 AM 58.4°F14.7°C 21.0°F-6.1°C 23% 4.0 mph NE6.4 kmh NE 15.0 mph24.1 kmh 30.00 in1015.9 mb 0.00 in0.0 mm 0.00 in0.0 mm 0.00 in0.0 mm
08:10 AM 58.5°F14.7°C 21.1°F-6.1°C 23% 3.0 mph SE4.8 kmh SE 16.0 mph25.7 kmh 30.00 in1015.9 mb 0.00 in0.0 mm 0.00 in0.0 mm 0.00 in0.0 mm
08:15 AM 58.6°F14.8°C 20.1°F-6.6°C 22% 4.0 mph E6.4 kmh E 18.0 mph29.0 kmh 30.01 in1016.3 mb 0.00 in0.0 mm 0.00 in0.0 mm 0.00 in0.0 mm
08:20 AM 58.8°F14.9°C 19.1°F-7.2°C 21% 7.0 mph NE11.3 kmh NE 20.0 mph32.2 kmh 30.00 in1015.9 mb 0.00 in0.0 mm 0.00 in0.0 mm 0.00 in0.0 mm
08:25 AM 59.1°F15.1°C 19.3°F-7.1°C 21% 8.0 mph ENE12.9 kmh ENE 17.0 mph27.4 kmh 30.00 in1015.9 mb 0.00 in0.0 mm 0.00 in0.0 mm 0.00 in0.0 mm
08:30 AM 59.1°F15.1°C 19.3°F-7.1°C 21% 10.0 mph NE16.1 kmh NE 18.0 mph29.0 kmh 30.00 in1015.9 mb 0.00 in0.0 mm 0.00 in0.0 mm 0.00 in0.0 mm
08:35 AM 59.2°F15.1°C 19.4°F-7.0°C 21% 9.0 mph E14.5 kmh E 17.0 mph27.4 kmh 30.00 in1015.9 mb 0.00 in0.0 mm 0.00 in0.0 mm 0.00 in0.0 mm
08:40 AM 59.3°F15.2°C 19.5°F-6.9°C 21% 8.0 mph NW12.9 kmh NW 17.0 mph27.4 kmh 30.01 in1016.3 mb 0.00 in0.0 mm 0.00 in0.0 mm 0.00 in0.0 mm
08:45 AM 59.6°F15.3°C 19.8°F-6.8°C 21% 1.0 mph N1.6 kmh N 17.0 mph27.4 kmh 30.00 in1015.9 mb 0.00 in0.0 mm 0.00 in0.0 mm 0.00 in0.0 mm
08:50 AM 59.8°F15.4°C 18.7°F-7.4°C 20% 8.0 mph NNW12.9 kmh NNW 17.0 mph27.4 kmh 30.01 in1016.3 mb 0.00 in0.0 mm 0.00 in0.0 mm 0.00 in0.0 mm
08:55 AM 59.9°F15.5°C 18.8°F-7.3°C 20% 3.0 mph ESE4.8 kmh ESE 18.0 mph29.0 kmh 30.00 in1015.9 mb 0.00 in0.0 mm 0.00 in0.0 mm 0.00 in0.0 mm
09:00 AM 60.1°F15.6°C 19.0°F-7.2°C 20% 4.0 mph WSW6.4 kmh WSW 18.0 mph29.0 kmh 30.01 in1016.3 mb 0.00 in0.0 mm 0.00 in0.0 mm 0.00 in0.0 mm
09:05 AM 60.3°F15.7°C 19.1°F-7.2°C 20% 7.0 mph NNW11.3 kmh NNW 17.0 mph27.4 kmh 30.01 in1016.3 mb 0.00 in0.0 mm 0.00 in0.0 mm 0.00 in0.0 mm
09:10 AM 60.4°F15.8°C 18.0°F-7.8°C 19% 7.0 mph ENE11.3 kmh ENE 17.0 mph27.4 kmh 30.02 in1016.6 mb 0.00 in0.0 mm 0.00 in0.0 mm 0.00 in0.0 mm
09:15 AM 60.4°F15.8°C 19.2°F-7.1°C 20% 2.0 mph SW3.2 kmh SW 15.0 mph24.1 kmh 30.02 in1016.6 mb 0.00 in0.0 mm 0.00 in0.0 mm 0.00 in0.0 mm
09:20 AM 60.4°F15.8°C 19.2°F-7.1°C 20% 6.0 mph NNE9.7 kmh NNE 23.0 mph37.0 kmh 30.02 in1016.6 mb 0.00 in0.0 mm 0.00 in0.0 mm 0.00 in0.0 mm
09:25 AM 60.4°F15.8°C 19.2°F-7.1°C 20% 11.0 mph N17.7 kmh N 13.0 mph20.9 kmh 30.02 in1016.6 mb 0.00 in0.0 mm 0.00 in0.0 mm 0.00 in0.0 mm
09:30 AM 60.5°F15.8°C 19.3°F-7.1°C 20% 4.0 mph WSW6.4 kmh WSW 15.0 mph24.1 kmh 30.02 in1016.6 mb 0.00 in0.0 mm 0.00 in0.0 mm 0.00 in0.0 mm
09:35 AM 60.5°F15.8°C 18.1°F-7.7°C 19% 7.0 mph SW11.3 kmh SW 18.0 mph29.0 kmh 30.02 in1016.6 mb 0.00 in0.0 mm 0.00 in0.0 mm 0.00 in0.0 mm
09:40 AM 60.5°F15.8°C 18.1°F-7.7°C 19% 3.0 mph W4.8 kmh W 18.0 mph29.0 kmh 30.02 in1016.6 mb 0.00 in0.0 mm 0.00 in0.0 mm 0.00 in0.0 mm
09:45 AM 60.7°F15.9°C 19.5°F-6.9°C 20% 13.0 mph E20.9 kmh E 20.0 mph32.2 kmh 30.02 in1016.6 mb 0.00 in0.0 mm 0.00 in0.0 mm 0.00 in0.0 mm
09:50 AM 60.7°F15.9°C 18.2°F-7.7°C 19% 15.0 mph NNE24.1 kmh NNE 20.0 mph32.2 kmh 30.02 in1016.6 mb 0.00 in0.0 mm 0.00 in0.0 mm 0.00 in0.0 mm
09:55 AM 60.7°F15.9°C 19.5°F-6.9°C 20% 9.0 mph NE14.5 kmh NE 19.0 mph30.6 kmh 30.02 in1016.6 mb 0.00 in0.0 mm 0.00 in0.0 mm 0.00 in0.0 mm
10:00 AM 60.8°F16.0°C 19.6°F-6.9°C 20% 9.0 mph N14.5 kmh N 19.0 mph30.6 kmh 30.02 in1016.6 mb 0.00 in0.0 mm 0.00 in0.0 mm 0.00 in0.0 mm
10:05 AM 61.1°F16.2°C 19.8°F-6.8°C 20% 7.0 mph E11.3 kmh E 18.0 mph29.0 kmh 30.02 in1016.6 mb 0.00 in0.0 mm 0.00 in0.0 mm 0.00 in0.0 mm
10:10 AM 61.2°F16.2°C 19.9°F-6.7°C 20% 7.0 mph NE11.3 kmh NE 19.0 mph30.6 kmh 30.02 in1016.6 mb 0.00 in0.0 mm 0.00 in0.0 mm 0.00 in0.0 mm
10:15 AM 61.5°F16.4°C 20.1°F-6.6°C 20% 2.0 mph SE3.2 kmh SE 17.0 mph27.4 kmh 30.02 in1016.6 mb 0.00 in0.0 mm 0.00 in0.0 mm 0.00 in0.0 mm
10:20 AM 61.7°F16.5°C 19.1°F-7.2°C 19% 17.0 mph NNE27.4 kmh NNE 22.0 mph35.4 kmh 30.02 in1016.6 mb 0.00 in0.0 mm 0.00 in0.0 mm 0.00 in0.0 mm
10:25 AM 61.8°F16.6°C 19.1°F-7.2°C 19% 14.0 mph NE22.5 kmh NE 21.0 mph33.8 kmh 30.02 in1016.6 mb 0.00 in0.0 mm 0.00 in0.0 mm 0.00 in0.0 mm
10:30 AM 62.1°F16.7°C 19.4°F-7.0°C 19% 8.0 mph NNE12.9 kmh NNE 21.0 mph33.8 kmh 30.02 in1016.6 mb 0.00 in0.0 mm 0.00 in0.0 mm 0.00 in0.0 mm
10:35 AM 62.4°F16.9°C 19.6°F-6.9°C 19% 2.0 mph WNW3.2 kmh WNW 12.0 mph19.3 kmh 30.02 in1016.6 mb 0.00 in0.0 mm 0.00 in0.0 mm 0.00 in0.0 mm
10:40 AM 62.6°F17.0°C 19.8°F-6.8°C 19% 5.0 mph NW8.0 kmh NW 13.0 mph20.9 kmh 30.02 in1016.6 mb 0.00 in0.0 mm 0.00 in0.0 mm 0.00 in0.0 mm
10:45 AM 62.7°F17.1°C 19.9°F-6.7°C 19% 2.0 mph NW3.2 kmh NW 17.0 mph27.4 kmh 30.02 in1016.6 mb 0.00 in0.0 mm 0.00 in0.0 mm 0.00 in0.0 mm
10:50 AM 62.6°F17.0°C 18.5°F-7.5°C 18% 5.0 mph NNE8.0 kmh NNE 17.0 mph27.4 kmh 30.02 in1016.6 mb 0.00 in0.0 mm 0.00 in0.0 mm 0.00 in0.0 mm
10:55 AM 62.5°F16.9°C 18.4°F-7.6°C 18% 3.0 mph W4.8 kmh W 18.0 mph29.0 kmh 30.02 in1016.6 mb 0.00 in0.0 mm 0.00 in0.0 mm 0.00 in0.0 mm
11:00 AM 62.8°F17.1°C 20.0°F-6.7°C 19% 4.0 mph WNW6.4 kmh WNW 18.0 mph29.0 kmh 30.02 in1016.6 mb 0.00 in0.0 mm 0.00 in0.0 mm 0.00 in0.0 mm
11:05 AM 62.9°F17.2°C 20.0°F-6.7°C 19% 5.0 mph NNE8.0 kmh NNE 15.0 mph24.1 kmh 30.02 in1016.6 mb 0.00 in0.0 mm 0.00 in0.0 mm 0.00 in0.0 mm
11:10 AM 63.1°F17.3°C 18.9°F-7.3°C 18% 12.0 mph N19.3 kmh N 18.0 mph29.0 kmh 30.02 in1016.6 mb 0.00 in0.0 mm 0.00 in0.0 mm 0.00 in0.0 mm
11:15 AM 63.0°F17.2°C 18.8°F-7.3°C 18% 6.0 mph WSW9.7 kmh WSW 21.0 mph33.8 kmh 30.01 in1016.3 mb 0.00 in0.0 mm 0.00 in0.0 mm 0.00 in0.0 mm
11:20 AM 63.2°F17.3°C 20.3°F-6.5°C 19% 13.0 mph NE20.9 kmh NE 21.0 mph33.8 kmh 30.01 in1016.3 mb 0.00 in0.0 mm 0.00 in0.0 mm 0.00 in0.0 mm
11:25 AM 63.3°F17.4°C 19.0°F-7.2°C 18% 7.0 mph NE11.3 kmh NE 13.0 mph20.9 kmh 30.01 in1016.3 mb 0.00 in0.0 mm 0.00 in0.0 mm 0.00 in0.0 mm
11:30 AM 63.4°F17.4°C 19.1°F-7.2°C 18% 11.0 mph NE17.7 kmh NE 15.0 mph24.1 kmh 30.00 in1015.9 mb 0.00 in0.0 mm 0.00 in0.0 mm 0.00 in0.0 mm
11:35 AM 63.7°F17.6°C 19.4°F-7.0°C 18% 4.0 mph ENE6.4 kmh ENE 15.0 mph24.1 kmh 30.01 in1016.3 mb 0.00 in0.0 mm 0.00 in0.0 mm 0.00 in0.0 mm
11:40 AM 63.9°F17.7°C 19.5°F-6.9°C 18% 2.0 mph SW3.2 kmh SW 18.0 mph29.0 kmh 30.01 in1016.3 mb 0.00 in0.0 mm 0.00 in0.0 mm 0.00 in0.0 mm
11:45 AM 64.1°F17.8°C 19.7°F-6.8°C 18% 6.0 mph E9.7 kmh E 13.0 mph20.9 kmh 30.01 in1016.3 mb 0.00 in0.0 mm 0.00 in0.0 mm 0.00 in0.0 mm
11:50 AM 64.3°F17.9°C 21.2°F-6.0°C 19% 3.0 mph N4.8 kmh N 13.0 mph20.9 kmh 30.01 in1016.3 mb 0.00 in0.0 mm 0.00 in0.0 mm 0.00 in0.0 mm
11:55 AM 64.7°F18.2°C 20.2°F-6.6°C 18% 5.0 mph N8.0 kmh N 10.0 mph16.1 kmh 30.01 in1016.3 mb 0.00 in0.0 mm 0.00 in0.0 mm 0.00 in0.0 mm
12:00 PM 64.3°F17.9°C 18.5°F-7.5°C 17% 6.0 mph NE9.7 kmh NE 19.0 mph30.6 kmh 30.00 in1015.9 mb 0.00 in0.0 mm 0.00 in0.0 mm 0.00 in0.0 mm
12:05 PM 64.5°F18.1°C 20.0°F-6.7°C 18% 6.0 mph NNE9.7 kmh NNE 17.0 mph27.4 kmh 30.00 in1015.9 mb 0.00 in0.0 mm 0.00 in0.0 mm 0.00 in0.0 mm
12:15 PM 64.4°F18.0°C 19.9°F-6.7°C 18% 6.0 mph E9.7 kmh E 13.0 mph20.9 kmh 30.00 in1015.9 mb 0.00 in0.0 mm 0.00 in0.0 mm 0.00 in0.0 mm
12:20 PM 64.6°F18.1°C 18.7°F-7.4°C 17% 16.0 mph N25.7 kmh N 16.0 mph25.7 kmh 30.00 in1015.9 mb 0.00 in0.0 mm 0.00 in0.0 mm 0.00 in0.0 mm
12:25 PM 64.8°F18.2°C 20.3°F-6.5°C 18% 6.0 mph NNE9.7 kmh NNE 12.0 mph19.3 kmh 30.00 in1015.9 mb 0.00 in0.0 mm 0.00 in0.0 mm 0.00 in0.0 mm
12:30 PM 65.2°F18.4°C 19.2°F-7.1°C 17% 8.0 mph NW12.9 kmh NW 18.0 mph29.0 kmh 30.00 in1015.9 mb 0.00 in0.0 mm 0.00 in0.0 mm 0.00 in0.0 mm
12:35 PM 65.1°F18.4°C 19.1°F-7.2°C 17% 7.0 mph NW11.3 kmh NW 14.0 mph22.5 kmh 30.00 in1015.9 mb 0.00 in0.0 mm 0.00 in0.0 mm 0.00 in0.0 mm
12:45 PM 65.1°F18.4°C 19.1°F-7.2°C 17% 5.0 mph N8.0 kmh N 14.0 mph22.5 kmh 29.99 in1015.6 mb 0.00 in0.0 mm 0.00 in0.0 mm 0.00 in0.0 mm
12:50 PM 65.3°F18.5°C 19.3°F-7.1°C 17% 8.0 mph N12.9 kmh N 14.0 mph22.5 kmh 29.99 in1015.6 mb 0.00 in0.0 mm 0.00 in0.0 mm 0.00 in0.0 mm
12:55 PM 65.4°F18.6°C 19.3°F-7.1°C 17% 7.0 mph N11.3 kmh N 14.0 mph22.5 kmh 29.99 in1015.6 mb 0.00 in0.0 mm 0.00 in0.0 mm 0.00 in0.0 mm
01:00 PM 65.3°F18.5°C 17.8°F-7.9°C 16% 6.0 mph E9.7 kmh E 14.0 mph22.5 kmh 29.98 in1015.2 mb 0.00 in0.0 mm 0.00 in0.0 mm 0.00 in0.0 mm
01:05 PM 65.2°F18.4°C 19.2°F-7.1°C 17% 3.0 mph W4.8 kmh W 16.0 mph25.7 kmh 29.99 in1015.6 mb 0.00 in0.0 mm 0.00 in0.0 mm 0.00 in0.0 mm
01:10 PM 65.2°F18.4°C 17.7°F-7.9°C 16% 10.0 mph NE16.1 kmh NE 16.0 mph25.7 kmh 29.98 in1015.2 mb 0.00 in0.0 mm 0.00 in0.0 mm 0.00 in0.0 mm
01:15 PM 65.1°F18.4°C 17.6°F-8.0°C 16% 8.0 mph NE12.9 kmh NE 17.0 mph27.4 kmh 29.99 in1015.6 mb 0.00 in0.0 mm 0.00 in0.0 mm 0.00 in0.0 mm
01:20 PM 65.0°F18.3°C 17.5°F-8.1°C 16% 10.0 mph SSE16.1 kmh SSE 22.0 mph35.4 kmh 29.98 in1015.2 mb 0.00 in0.0 mm 0.00 in0.0 mm 0.00 in0.0 mm
01:25 PM 64.9°F18.3°C 17.5°F-8.1°C 16% 5.0 mph W8.0 kmh W 17.0 mph27.4 kmh 29.98 in1015.2 mb 0.00 in0.0 mm 0.00 in0.0 mm 0.00 in0.0 mm
01:30 PM 64.9°F18.3°C 17.5°F-8.1°C 16% 7.0 mph N11.3 kmh N 17.0 mph27.4 kmh 29.98 in1015.2 mb 0.00 in0.0 mm 0.00 in0.0 mm 0.00 in0.0 mm
01:35 PM 65.0°F18.3°C 17.5°F-8.1°C 16% 6.0 mph N9.7 kmh N 14.0 mph22.5 kmh 29.98 in1015.2 mb 0.00 in0.0 mm 0.00 in0.0 mm 0.00 in0.0 mm
01:40 PM 64.9°F18.3°C 17.5°F-8.1°C 16% 10.0 mph N16.1 kmh N 15.0 mph24.1 kmh 29.98 in1015.2 mb 0.00 in0.0 mm 0.00 in0.0 mm 0.00 in0.0 mm
01:45 PM 65.1°F18.4°C 17.6°F-8.0°C 16% 13.0 mph ENE20.9 kmh ENE 20.0 mph32.2 kmh 29.98 in1015.2 mb 0.00 in0.0 mm 0.00 in0.0 mm 0.00 in0.0 mm
01:50 PM 64.9°F18.3°C 17.5°F-8.1°C 16% 5.0 mph E8.0 kmh E 20.0 mph32.2 kmh 29.98 in1015.2 mb 0.00 in0.0 mm 0.00 in0.0 mm 0.00 in0.0 mm
01:55 PM 65.0°F18.3°C 17.5°F-8.1°C 16% 5.0 mph W8.0 kmh W 14.0 mph22.5 kmh 29.98 in1015.2 mb 0.00 in0.0 mm 0.00 in0.0 mm 0.00 in0.0 mm
02:00 PM 65.2°F18.4°C 17.7°F-7.9°C 16% 3.0 mph NNW4.8 kmh NNW 15.0 mph24.1 kmh 29.98 in1015.2 mb 0.00 in0.0 mm 0.00 in0.0 mm 0.00 in0.0 mm
02:05 PM 65.2°F18.4°C 17.7°F-7.9°C 16% 12.0 mph NE19.3 kmh NE 14.0 mph22.5 kmh 29.98 in1015.2 mb 0.00 in0.0 mm 0.00 in0.0 mm 0.00 in0.0 mm
02:10 PM 65.2°F18.4°C 16.1°F-8.8°C 15% 8.0 mph E12.9 kmh E 17.0 mph27.4 kmh 29.98 in1015.2 mb 0.00 in0.0 mm 0.00 in0.0 mm 0.00 in0.0 mm
02:15 PM 65.1°F18.4°C 17.6°F-8.0°C 16% 5.0 mph NE8.0 kmh NE 18.0 mph29.0 kmh 29.98 in1015.2 mb 0.00 in0.0 mm 0.00 in0.0 mm 0.00 in0.0 mm
02:20 PM 65.1°F18.4°C 17.6°F-8.0°C 16% 3.0 mph NW4.8 kmh NW 18.0 mph29.0 kmh 29.99 in1015.6 mb 0.00 in0.0 mm 0.00 in0.0 mm 0.00 in0.0 mm
02:25 PM 65.4°F18.6°C 17.9°F-7.8°C 16% 6.0 mph NE9.7 kmh NE 11.0 mph17.7 kmh 29.98 in1015.2 mb 0.00 in0.0 mm 0.00 in0.0 mm 0.00 in0.0 mm
02:30 PM 65.3°F18.5°C 16.2°F-8.8°C 15% 5.0 mph ENE8.0 kmh ENE 15.0 mph24.1 kmh 29.98 in1015.2 mb 0.00 in0.0 mm 0.00 in0.0 mm 0.00 in0.0 mm
02:35 PM 65.2°F18.4°C 16.1°F-8.8°C 15% 5.0 mph NE8.0 kmh NE 17.0 mph27.4 kmh 29.99 in1015.6 mb 0.00 in0.0 mm 0.00 in0.0 mm 0.00 in0.0 mm
02:40 PM 65.2°F18.4°C 17.7°F-7.9°C 16% 4.0 mph NNE6.4 kmh NNE 17.0 mph27.4 kmh 29.98 in1015.2 mb 0.00 in0.0 mm 0.00 in0.0 mm 0.00 in0.0 mm
02:45 PM 65.2°F18.4°C 16.1°F-8.8°C 15% 10.0 mph 16.1 kmh 17.0 mph27.4 kmh 29.99 in1015.6 mb 0.00 in0.0 mm 0.00 in0.0 mm 0.00 in0.0 mm
02:50 PM 65.0°F18.3°C 16.0°F-8.9°C 15% 8.0 mph NE12.9 kmh NE 18.0 mph29.0 kmh 29.98 in1015.2 mb 0.00 in0.0 mm 0.00 in0.0 mm 0.00 in0.0 mm
02:55 PM 65.2°F18.4°C 16.1°F-8.8°C 15% 10.0 mph NE16.1 kmh NE 14.0 mph22.5 kmh 29.99 in1015.6 mb 0.00 in0.0 mm 0.00 in0.0 mm 0.00 in0.0 mm
03:00 PM 65.0°F18.3°C 16.0°F-8.9°C 15% 5.0 mph NW8.0 kmh NW 14.0 mph22.5 kmh 29.99 in1015.6 mb 0.00 in0.0 mm 0.00 in0.0 mm 0.00 in0.0 mm
03:05 PM 65.0°F18.3°C 16.0°F-8.9°C 15% 9.0 mph NE14.5 kmh NE 11.0 mph17.7 kmh 29.99 in1015.6 mb 0.00 in0.0 mm 0.00 in0.0 mm 0.00 in0.0 mm
03:10 PM 65.0°F18.3°C 16.0°F-8.9°C 15% 8.0 mph NE12.9 kmh NE 12.0 mph19.3 kmh 29.99 in1015.6 mb 0.00 in0.0 mm 0.00 in0.0 mm 0.00 in0.0 mm
03:15 PM 64.8°F18.2°C 15.8°F-9.0°C 15% 13.0 mph NNW20.9 kmh NNW 16.0 mph25.7 kmh 29.99 in1015.6 mb 0.00 in0.0 mm 0.00 in0.0 mm 0.00 in0.0 mm
03:20 PM 64.7°F18.2°C 15.7°F-9.1°C 15% 7.0 mph NNE11.3 kmh NNE 18.0 mph29.0 kmh 29.99 in1015.6 mb 0.00 in0.0 mm 0.00 in0.0 mm 0.00 in0.0 mm
03:25 PM 64.8°F18.2°C 15.8°F-9.0°C 15% 2.0 mph WSW3.2 kmh WSW 12.0 mph19.3 kmh 29.99 in1015.6 mb 0.00 in0.0 mm 0.00 in0.0 mm 0.00 in0.0 mm
03:30 PM 64.6°F18.1°C 15.6°F-9.1°C 15% 7.0 mph N11.3 kmh N 12.0 mph19.3 kmh 29.99 in1015.6 mb 0.00 in0.0 mm 0.00 in0.0 mm 0.00 in0.0 mm
03:35 PM 64.5°F18.1°C 15.6°F-9.1°C 15% 7.0 mph E11.3 kmh E 11.0 mph17.7 kmh 30.00 in1015.9 mb 0.00 in0.0 mm 0.00 in0.0 mm 0.00 in0.0 mm
03:40 PM 64.4°F18.0°C 15.5°F-9.2°C 15% 6.0 mph NNE9.7 kmh NNE 15.0 mph24.1 kmh 30.00 in1015.9 mb 0.00 in0.0 mm 0.00 in0.0 mm 0.00 in0.0 mm
03:45 PM 64.3°F17.9°C 15.4°F-9.2°C 15% 10.0 mph ENE16.1 kmh ENE 19.0 mph30.6 kmh 30.00 in1015.9 mb 0.00 in0.0 mm 0.00 in0.0 mm 0.00 in0.0 mm
03:50 PM 64.1°F17.8°C 15.2°F-9.3°C 15% 7.0 mph NE11.3 kmh NE 20.0 mph32.2 kmh 30.00 in1015.9 mb 0.00 in0.0 mm 0.00 in0.0 mm 0.00 in0.0 mm
03:55 PM 63.9°F17.7°C 15.1°F-9.4°C 15% 7.0 mph ENE11.3 kmh ENE 15.0 mph24.1 kmh 30.00 in1015.9 mb 0.00 in0.0 mm 0.00 in0.0 mm 0.00 in0.0 mm
04:00 PM 63.8°F17.7°C 15.0°F-9.4°C 15% 12.0 mph NNE19.3 kmh NNE 15.0 mph24.1 kmh 30.00 in1015.9 mb 0.00 in0.0 mm 0.00 in0.0 mm 0.00 in0.0 mm
04:05 PM 63.7°F17.6°C 14.9°F-9.5°C 15% 12.0 mph N19.3 kmh N 15.0 mph24.1 kmh 30.00 in1015.9 mb 0.00 in0.0 mm 0.00 in0.0 mm 0.00 in0.0 mm
04:10 PM 63.5°F17.5°C 13.1°F-10.5°C 14% 13.0 mph NE20.9 kmh NE 21.0 mph33.8 kmh 30.00 in1015.9 mb 0.00 in0.0 mm 0.00 in0.0 mm 0.00 in0.0 mm
04:15 PM 63.3°F17.4°C 14.6°F-9.7°C 15% 6.0 mph N9.7 kmh N 19.0 mph30.6 kmh 30.00 in1015.9 mb 0.00 in0.0 mm 0.00 in0.0 mm 0.00 in0.0 mm
04:20 PM 63.0°F17.2°C 12.7°F-10.7°C 14% 17.0 mph NE27.4 kmh NE 19.0 mph30.6 kmh 30.00 in1015.9 mb 0.00 in0.0 mm 0.00 in0.0 mm 0.00 in0.0 mm
04:25 PM 62.8°F17.1°C 14.2°F-9.9°C 15% 4.0 mph N6.4 kmh N 13.0 mph20.9 kmh 30.01 in1016.3 mb 0.00 in0.0 mm 0.00 in0.0 mm 0.00 in0.0 mm
04:30 PM 62.5°F16.9°C 13.9°F-10.1°C 15% 7.0 mph NE11.3 kmh NE 18.0 mph29.0 kmh 30.01 in1016.3 mb 0.00 in0.0 mm 0.00 in0.0 mm 0.00 in0.0 mm
04:35 PM 62.3°F16.8°C 13.8°F-10.1°C 15% 18.0 mph NNE29.0 kmh NNE 18.0 mph29.0 kmh 30.01 in1016.3 mb 0.00 in0.0 mm 0.00 in0.0 mm 0.00 in0.0 mm
04:40 PM 62.1°F16.7°C 13.6°F-10.2°C 15% 8.0 mph NE12.9 kmh NE 18.0 mph29.0 kmh 30.01 in1016.3 mb 0.00 in0.0 mm 0.00 in0.0 mm 0.00 in0.0 mm
04:45 PM 62.0°F16.7°C 13.5°F-10.3°C 15% 2.0 mph ESE3.2 kmh ESE 19.0 mph30.6 kmh 30.01 in1016.3 mb 0.00 in0.0 mm 0.00 in0.0 mm 0.00 in0.0 mm
04:50 PM 61.8°F16.6°C 13.4°F-10.3°C 15% 7.0 mph NE11.3 kmh NE 19.0 mph30.6 kmh 30.01 in1016.3 mb 0.00 in0.0 mm 0.00 in0.0 mm 0.00 in0.0 mm
04:55 PM 61.7°F16.5°C 13.3°F-10.4°C 15% 7.0 mph NE11.3 kmh NE 17.0 mph27.4 kmh 30.01 in1016.3 mb 0.00 in0.0 mm 0.00 in0.0 mm 0.00 in0.0 mm
05:00 PM 61.5°F16.4°C 13.1°F-10.5°C 15% 4.0 mph NE6.4 kmh NE 17.0 mph27.4 kmh 30.02 in1016.6 mb 0.00 in0.0 mm 0.00 in0.0 mm 0.00 in0.0 mm
05:05 PM 61.5°F16.4°C 13.1°F-10.5°C 15% 9.0 mph NE14.5 kmh NE 18.0 mph29.0 kmh 30.02 in1016.6 mb 0.00 in0.0 mm 0.00 in0.0 mm 0.00 in0.0 mm
05:10 PM 61.3°F16.3°C 14.5°F-9.7°C 16% 6.0 mph NE9.7 kmh NE 18.0 mph29.0 kmh 30.02 in1016.6 mb 0.00 in0.0 mm 0.00 in0.0 mm 0.00 in0.0 mm
05:20 PM 61.1°F16.2°C 12.8°F-10.7°C 15% 3.0 mph SSW4.8 kmh SSW 18.0 mph29.0 kmh 30.02 in1016.6 mb 0.00 in0.0 mm 0.00 in0.0 mm 0.00 in0.0 mm
05:25 PM 61.0°F16.1°C 14.3°F-9.8°C 16% 4.0 mph WNW6.4 kmh WNW 12.0 mph19.3 kmh 30.02 in1016.6 mb 0.00 in0.0 mm 0.00 in0.0 mm 0.00 in0.0 mm
05:30 PM 60.9°F16.1°C 14.2°F-9.9°C 16% 7.0 mph NNE11.3 kmh NNE 14.0 mph22.5 kmh 30.03 in1016.9 mb 0.00 in0.0 mm 0.00 in0.0 mm 0.00 in0.0 mm
05:35 PM 60.9°F16.1°C 12.7°F-10.7°C 15% 5.0 mph NE8.0 kmh NE 13.0 mph20.9 kmh 30.03 in1016.9 mb 0.00 in0.0 mm 0.00 in0.0 mm 0.00 in0.0 mm
05:40 PM 60.7°F15.9°C 12.5°F-10.8°C 15% 8.0 mph NNW12.9 kmh NNW 13.0 mph20.9 kmh 30.03 in1016.9 mb 0.00 in0.0 mm 0.00 in0.0 mm 0.00 in0.0 mm
05:45 PM 60.7°F15.9°C 12.5°F-10.8°C 15% 6.0 mph NE9.7 kmh NE 13.0 mph20.9 kmh 30.03 in1016.9 mb 0.00 in0.0 mm 0.00 in0.0 mm 0.00 in0.0 mm
05:50 PM 60.7°F15.9°C 12.5°F-10.8°C 15% 10.0 mph NE16.1 kmh NE 16.0 mph25.7 kmh 30.02 in1016.6 mb 0.00 in0.0 mm 0.00 in0.0 mm 0.00 in0.0 mm
05:55 PM 60.7°F15.9°C 12.5°F-10.8°C 15% 6.0 mph NE9.7 kmh NE 14.0 mph22.5 kmh 30.02 in1016.6 mb 0.00 in0.0 mm 0.00 in0.0 mm 0.00 in0.0 mm
06:00 PM 60.6°F15.9°C 12.4°F-10.9°C 15% 2.0 mph WSW3.2 kmh WSW 14.0 mph22.5 kmh 30.03 in1016.9 mb 0.00 in0.0 mm 0.00 in0.0 mm 0.00 in0.0 mm
06:05 PM 60.5°F15.8°C 12.3°F-10.9°C 15% 2.0 mph SW3.2 kmh SW 11.0 mph17.7 kmh 30.03 in1016.9 mb 0.00 in0.0 mm 0.00 in0.0 mm 0.00 in0.0 mm
06:10 PM 60.5°F15.8°C 12.3°F-10.9°C 15% 2.0 mph ENE3.2 kmh ENE 17.0 mph27.4 kmh 30.03 in1016.9 mb 0.00 in0.0 mm 0.00 in0.0 mm 0.00 in0.0 mm
06:15 PM 60.7°F15.9°C 12.5°F-10.8°C 15% 6.0 mph NNW9.7 kmh NNW 16.0 mph25.7 kmh 30.03 in1016.9 mb 0.00 in0.0 mm 0.00 in0.0 mm 0.00 in0.0 mm
06:20 PM 60.5°F15.8°C 12.3°F-10.9°C 15% 1.0 mph W1.6 kmh W 16.0 mph25.7 kmh 30.03 in1016.9 mb 0.00 in0.0 mm 0.00 in0.0 mm 0.00 in0.0 mm
06:25 PM 60.5°F15.8°C 12.3°F-10.9°C 15% 6.0 mph NNW9.7 kmh NNW 17.0 mph27.4 kmh 30.04 in1017.3 mb 0.00 in0.0 mm 0.00 in0.0 mm 0.00 in0.0 mm
06:30 PM 60.5°F15.8°C 12.3°F-10.9°C 15% 8.0 mph ENE12.9 kmh ENE 17.0 mph27.4 kmh 30.04 in1017.3 mb 0.00 in0.0 mm 0.00 in0.0 mm 0.00 in0.0 mm
06:35 PM 60.4°F15.8°C 12.3°F-10.9°C 15% 3.0 mph N4.8 kmh N 15.0 mph24.1 kmh 30.04 in1017.3 mb 0.00 in0.0 mm 0.00 in0.0 mm 0.00 in0.0 mm
06:40 PM 60.4°F15.8°C 13.8°F-10.1°C 16% 12.0 mph NE19.3 kmh NE 19.0 mph30.6 kmh 30.04 in1017.3 mb 0.00 in0.0 mm 0.00 in0.0 mm 0.00 in0.0 mm
06:45 PM 60.3°F15.7°C 12.2°F-11.0°C 15% 6.0 mph NNW9.7 kmh NNW 13.0 mph20.9 kmh 30.04 in1017.3 mb 0.00 in0.0 mm 0.00 in0.0 mm 0.00 in0.0 mm
06:50 PM 60.3°F15.7°C 13.7°F-10.2°C 16% 3.0 mph NE4.8 kmh NE 13.0 mph20.9 kmh 30.04 in1017.3 mb 0.00 in0.0 mm 0.00 in0.0 mm 0.00 in0.0 mm
06:55 PM 60.1°F15.6°C 13.6°F-10.2°C 16% 7.0 mph NE11.3 kmh NE 9.0 mph14.5 kmh 30.04 in1017.3 mb 0.00 in0.0 mm 0.00 in0.0 mm 0.00 in0.0 mm
07:00 PM 59.9°F15.5°C 13.4°F-10.3°C 16% 6.0 mph NE9.7 kmh NE 9.0 mph14.5 kmh 30.05 in1017.6 mb 0.00 in0.0 mm 0.00 in0.0 mm 0.00 in0.0 mm
07:05 PM 59.7°F15.4°C 13.3°F-10.4°C 16% 4.0 mph NNW6.4 kmh NNW 6.0 mph9.7 kmh 30.04 in1017.3 mb 0.00 in0.0 mm 0.00 in0.0 mm 0.00 in0.0 mm
07:10 PM 59.7°F15.4°C 13.3°F-10.4°C 16% 3.0 mph NNE4.8 kmh NNE 10.0 mph16.1 kmh 30.05 in1017.6 mb 0.00 in0.0 mm 0.00 in0.0 mm 0.00 in0.0 mm
07:15 PM 59.6°F15.3°C 13.2°F-10.4°C 16% 2.0 mph NE3.2 kmh NE 7.0 mph11.3 kmh 30.05 in1017.6 mb 0.00 in0.0 mm 0.00 in0.0 mm 0.00 in0.0 mm
07:20 PM 59.5°F15.3°C 14.5°F-9.7°C 17% 2.0 mph NE3.2 kmh NE 7.0 mph11.3 kmh 30.05 in1017.6 mb 0.00 in0.0 mm 0.00 in0.0 mm 0.00 in0.0 mm
07:25 PM 59.3°F15.2°C 14.4°F-9.8°C 17% 2.0 mph NE3.2 kmh NE 5.0 mph8.0 kmh 30.05 in1017.6 mb 0.00 in0.0 mm 0.00 in0.0 mm 0.00 in0.0 mm
07:30 PM 59.1°F15.1°C 14.2°F-9.9°C 17% 1.0 mph NE1.6 kmh NE 5.0 mph8.0 kmh 30.05 in1017.6 mb 0.00 in0.0 mm 0.00 in0.0 mm 0.00 in0.0 mm
07:35 PM 59.0°F15.0°C 14.1°F-9.9°C 17% 2.0 mph E3.2 kmh E 3.0 mph4.8 kmh 30.06 in1017.9 mb 0.00 in0.0 mm 0.00 in0.0 mm 0.00 in0.0 mm
07:40 PM 58.9°F14.9°C 14.1°F-9.9°C 17% 2.0 mph NE3.2 kmh NE 3.0 mph4.8 kmh 30.05 in1017.6 mb 0.00 in0.0 mm 0.00 in0.0 mm 0.00 in0.0 mm
07:45 PM 58.9°F14.9°C 14.1°F-9.9°C 17% Calm Calm 7.0 mph11.3 kmh 30.06 in1017.9 mb 0.00 in0.0 mm 0.00 in0.0 mm 0.00 in0.0 mm
07:50 PM 58.9°F14.9°C 14.1°F-9.9°C 17% 2.0 mph NE3.2 kmh NE 7.0 mph11.3 kmh 30.05 in1017.6 mb 0.00 in0.0 mm 0.00 in0.0 mm 0.00 in0.0 mm
07:55 PM 58.9°F14.9°C 14.1°F-9.9°C 17% 3.0 mph WNW4.8 kmh WNW 6.0 mph9.7 kmh 30.05 in1017.6 mb 0.00 in0.0 mm 0.00 in0.0 mm 0.00 in0.0 mm
08:00 PM 59.2°F15.1°C 12.8°F-10.7°C 16% 2.0 mph SSE3.2 kmh SSE 14.0 mph22.5 kmh 30.05 in1017.6 mb 0.00 in0.0 mm 0.00 in0.0 mm 0.00 in0.0 mm
08:05 PM 59.4°F15.2°C 13.0°F-10.6°C 16% 4.0 mph E6.4 kmh E 12.0 mph19.3 kmh 30.06 in1017.9 mb 0.00 in0.0 mm 0.00 in0.0 mm 0.00 in0.0 mm
08:10 PM 59.3°F15.2°C 12.9°F-10.6°C 16% 3.0 mph NNW4.8 kmh NNW 12.0 mph19.3 kmh 30.06 in1017.9 mb 0.00 in0.0 mm 0.00 in0.0 mm 0.00 in0.0 mm
08:15 PM 59.2°F15.1°C 14.3°F-9.8°C 17% 7.0 mph NE11.3 kmh NE 11.0 mph17.7 kmh 30.07 in1018.3 mb 0.00 in0.0 mm 0.00 in0.0 mm 0.00 in0.0 mm
08:20 PM 59.0°F15.0°C 12.7°F-10.7°C 16% 9.0 mph NNW14.5 kmh NNW 11.0 mph17.7 kmh 30.07 in1018.3 mb 0.00 in0.0 mm 0.00 in0.0 mm 0.00 in0.0 mm
08:25 PM 59.1°F15.1°C 12.8°F-10.7°C 16% 5.0 mph N8.0 kmh N 15.0 mph24.1 kmh 30.07 in1018.3 mb 0.00 in0.0 mm 0.00 in0.0 mm 0.00 in0.0 mm
08:30 PM 59.3°F15.2°C 12.9°F-10.6°C 16% 8.0 mph NW12.9 kmh NW 17.0 mph27.4 kmh 30.07 in1018.3 mb 0.00 in0.0 mm 0.00 in0.0 mm 0.00 in0.0 mm
08:35 PM 59.4°F15.2°C 13.0°F-10.6°C 16% 4.0 mph NNE6.4 kmh NNE 12.0 mph19.3 kmh 30.07 in1018.3 mb 0.00 in0.0 mm 0.00 in0.0 mm 0.00 in0.0 mm
08:40 PM 59.6°F15.3°C 13.2°F-10.4°C 16% 5.0 mph NE8.0 kmh NE 16.0 mph25.7 kmh 30.07 in1018.3 mb 0.00 in0.0 mm 0.00 in0.0 mm 0.00 in0.0 mm
08:45 PM 59.5°F15.3°C 13.1°F-10.5°C 16% 7.0 mph N11.3 kmh N 9.0 mph14.5 kmh 30.07 in1018.3 mb 0.00 in0.0 mm 0.00 in0.0 mm 0.00 in0.0 mm
08:50 PM 59.3°F15.2°C 12.9°F-10.6°C 16% 5.0 mph NE8.0 kmh NE 9.0 mph14.5 kmh 30.07 in1018.3 mb 0.00 in0.0 mm 0.00 in0.0 mm 0.00 in0.0 mm
08:55 PM 59.2°F15.1°C 12.8°F-10.7°C 16% 1.0 mph NNW1.6 kmh NNW 6.0 mph9.7 kmh 30.07 in1018.3 mb 0.00 in0.0 mm 0.00 in0.0 mm 0.00 in0.0 mm
09:00 PM 59.1°F15.1°C 14.2°F-9.9°C 17% 2.0 mph N3.2 kmh N 11.0 mph17.7 kmh 30.06 in1017.9 mb 0.00 in0.0 mm 0.00 in0.0 mm 0.00 in0.0 mm
09:05 PM 58.9°F14.9°C 14.1°F-9.9°C 17% 2.0 mph ENE3.2 kmh ENE 8.0 mph12.9 kmh 30.06 in1017.9 mb 0.00 in0.0 mm 0.00 in0.0 mm 0.00 in0.0 mm
09:10 PM 59.4°F15.2°C 13.0°F-10.6°C 16% 9.0 mph NW14.5 kmh NW 22.0 mph35.4 kmh 30.07 in1018.3 mb 0.00 in0.0 mm 0.00 in0.0 mm 0.00 in0.0 mm
09:15 PM 59.8°F15.4°C 13.3°F-10.4°C 16% 9.0 mph WNW14.5 kmh WNW 19.0 mph30.6 kmh 30.07 in1018.3 mb 0.00 in0.0 mm 0.00 in0.0 mm 0.00 in0.0 mm
09:20 PM 59.8°F15.4°C 13.3°F-10.4°C 16% 7.0 mph NW11.3 kmh NW 19.0 mph30.6 kmh 30.06 in1017.9 mb 0.00 in0.0 mm 0.00 in0.0 mm 0.00 in0.0 mm
09:25 PM 59.7°F15.4°C 13.3°F-10.4°C 16% 4.0 mph NNW6.4 kmh NNW 11.0 mph17.7 kmh 30.07 in1018.3 mb 0.00 in0.0 mm 0.00 in0.0 mm 0.00 in0.0 mm
09:30 PM 59.6°F15.3°C 13.2°F-10.4°C 16% 7.0 mph NNE11.3 kmh NNE 16.0 mph25.7 kmh 30.07 in1018.3 mb 0.00 in0.0 mm 0.00 in0.0 mm 0.00 in0.0 mm
09:35 PM 59.7°F15.4°C 13.3°F-10.4°C 16% 11.0 mph N17.7 kmh N 16.0 mph25.7 kmh 30.07 in1018.3 mb 0.00 in0.0 mm 0.00 in0.0 mm 0.00 in0.0 mm
09:40 PM 59.7°F15.4°C 13.3°F-10.4°C 16% 10.0 mph NE16.1 kmh NE 16.0 mph25.7 kmh 30.07 in1018.3 mb 0.00 in0.0 mm 0.00 in0.0 mm 0.00 in0.0 mm
09:45 PM 59.9°F15.5°C 13.4°F-10.3°C 16% 11.0 mph E17.7 kmh E 20.0 mph32.2 kmh 30.07 in1018.3 mb 0.00 in0.0 mm 0.00 in0.0 mm 0.00 in0.0 mm
09:50 PM 59.9°F15.5°C 13.4°F-10.3°C 16% 16.0 mph NNE25.7 kmh NNE 20.0 mph32.2 kmh 30.07 in1018.3 mb 0.00 in0.0 mm 0.00 in0.0 mm 0.00 in0.0 mm
09:55 PM 59.9°F15.5°C 13.4°F-10.3°C 16% 11.0 mph ENE17.7 kmh ENE 11.0 mph17.7 kmh 30.07 in1018.3 mb 0.00 in0.0 mm 0.00 in0.0 mm 0.00 in0.0 mm
10:00 PM 59.9°F15.5°C 13.4°F-10.3°C 16% 14.0 mph N22.5 kmh N 17.0 mph27.4 kmh 30.07 in1018.3 mb 0.00 in0.0 mm 0.00 in0.0 mm 0.00 in0.0 mm
10:05 PM 59.9°F15.5°C 13.4°F-10.3°C 16% 8.0 mph NW12.9 kmh NW 15.0 mph24.1 kmh 30.07 in1018.3 mb 0.00 in0.0 mm 0.00 in0.0 mm 0.00 in0.0 mm
10:10 PM 59.9°F15.5°C 13.4°F-10.3°C 16% 9.0 mph NNE14.5 kmh NNE 15.0 mph24.1 kmh 30.07 in1018.3 mb 0.00 in0.0 mm 0.00 in0.0 mm 0.00 in0.0 mm
10:15 PM 59.8°F15.4°C 13.3°F-10.4°C 16% 8.0 mph W12.9 kmh W 18.0 mph29.0 kmh 30.08 in1018.6 mb 0.00 in0.0 mm 0.00 in0.0 mm 0.00 in0.0 mm
10:20 PM 59.8°F15.4°C 13.3°F-10.4°C 16% 11.0 mph NNE17.7 kmh NNE 13.0 mph20.9 kmh 30.08 in1018.6 mb 0.00 in0.0 mm 0.00 in0.0 mm 0.00 in0.0 mm
10:25 PM 59.8°F15.4°C 13.3°F-10.4°C 16% 6.0 mph WSW9.7 kmh WSW 18.0 mph29.0 kmh 30.08 in1018.6 mb 0.00 in0.0 mm 0.00 in0.0 mm 0.00 in0.0 mm
10:30 PM 59.8°F15.4°C 13.3°F-10.4°C 16% 12.0 mph N19.3 kmh N 18.0 mph29.0 kmh 30.08 in1018.6 mb 0.00 in0.0 mm 0.00 in0.0 mm 0.00 in0.0 mm
10:35 PM 59.8°F15.4°C 13.3°F-10.4°C 16% 8.0 mph SE12.9 kmh SE 12.0 mph19.3 kmh 30.08 in1018.6 mb 0.00 in0.0 mm 0.00 in0.0 mm 0.00 in0.0 mm
10:40 PM 59.9°F15.5°C 13.4°F-10.3°C 16% 6.0 mph ESE9.7 kmh ESE 19.0 mph30.6 kmh 30.08 in1018.6 mb 0.00 in0.0 mm 0.00 in0.0 mm 0.00 in0.0 mm
10:45 PM 59.7°F15.4°C 13.3°F-10.4°C 16% 7.0 mph ESE11.3 kmh ESE 13.0 mph20.9 kmh 30.08 in1018.6 mb 0.00 in0.0 mm 0.00 in0.0 mm 0.00 in0.0 mm
10:50 PM 59.6°F15.3°C 13.2°F-10.4°C 16% 10.0 mph NE16.1 kmh NE 14.0 mph22.5 kmh 30.08 in1018.6 mb 0.00 in0.0 mm 0.00 in0.0 mm 0.00 in0.0 mm
10:55 PM 59.6°F15.3°C 13.2°F-10.4°C 16% 7.0 mph E11.3 kmh E 14.0 mph22.5 kmh 30.08 in1018.6 mb 0.00 in0.0 mm 0.00 in0.0 mm 0.00 in0.0 mm
11:00 PM 59.6°F15.3°C 13.2°F-10.4°C 16% 6.0 mph E9.7 kmh E 17.0 mph27.4 kmh 30.07 in1018.3 mb 0.00 in0.0 mm 0.00 in0.0 mm 0.00 in0.0 mm
11:05 PM 59.5°F15.3°C 13.1°F-10.5°C 16% 9.0 mph NE14.5 kmh NE 14.0 mph22.5 kmh 30.07 in1018.3 mb 0.00 in0.0 mm 0.00 in0.0 mm 0.00 in0.0 mm
11:10 PM 59.6°F15.3°C 13.2°F-10.4°C 16% 1.0 mph E1.6 kmh E 19.0 mph30.6 kmh 30.07 in1018.3 mb 0.00 in0.0 mm 0.00 in0.0 mm 0.00 in0.0 mm
11:15 PM 59.6°F15.3°C 13.2°F-10.4°C 16% 4.0 mph ESE6.4 kmh ESE 13.0 mph20.9 kmh 30.07 in1018.3 mb 0.00 in0.0 mm 0.00 in0.0 mm 0.00 in0.0 mm
11:20 PM 59.6°F15.3°C 13.2°F-10.4°C 16% 8.0 mph E12.9 kmh E 27.0 mph43.5 kmh 30.07 in1018.3 mb 0.00 in0.0 mm 0.00 in0.0 mm 0.00 in0.0 mm
11:25 PM 59.9°F15.5°C 13.4°F-10.3°C 16% 8.0 mph SE12.9 kmh SE 18.0 mph29.0 kmh 30.07 in1018.3 mb 0.00 in0.0 mm 0.00 in0.0 mm 0.00 in0.0 mm
11:30 PM 60.0°F15.6°C 13.5°F-10.3°C 16% 6.0 mph ESE9.7 kmh ESE 21.0 mph33.8 kmh 30.07 in1018.3 mb 0.00 in0.0 mm 0.00 in0.0 mm 0.00 in0.0 mm
11:35 PM 60.1°F15.6°C 13.6°F-10.2°C 16% 10.0 mph NE16.1 kmh NE 18.0 mph29.0 kmh 30.07 in1018.3 mb 0.00 in0.0 mm 0.00 in0.0 mm 0.00 in0.0 mm
11:40 PM 60.0°F15.6°C 11.9°F-11.2°C 15% 7.0 mph N11.3 kmh N 19.0 mph30.6 kmh 30.07 in1018.3 mb 0.00 in0.0 mm 0.00 in0.0 mm 0.00 in0.0 mm
11:45 PM 60.0°F15.6°C 13.5°F-10.3°C 16% 9.0 mph E14.5 kmh E 21.0 mph33.8 kmh 30.07 in1018.3 mb 0.00 in0.0 mm 0.00 in0.0 mm 0.00 in0.0 mm
11:50 PM 60.0°F15.6°C 11.9°F-11.2°C 15% 9.0 mph NE14.5 kmh NE 23.0 mph37.0 kmh 30.07 in1018.3 mb 0.00 in0.0 mm 0.00 in0.0 mm 0.00 in0.0 mm
11:55 PM 60.1°F15.6°C 12.0°F-11.1°C 15% 12.0 mph NE19.3 kmh NE 21.0 mph33.8 kmh 30.07 in1018.3 mb 0.00 in0.0 mm 0.00 in0.0 mm 0.00 in0.0 mm